Time;durP1;ratioP1;P1;durP2;ratioP2;P2;SDS_P1;SDS_P2;PMS_P1;PMS_P2;Temp;Humidity;BMP_temperature;BMP_pressure;BME280_temperature;BME280_humidity;BME280_pressure;Samples;Min_cycle;Max_cycle;Signal;HPM_P1;HPM_P2
2022/02/17 00:00:29;;;;;;;1.43;0.70;;;12.30;99.90;;;;;;5092057;28;20275;-57
2022/02/17 00:02:56;;;;;;;1.67;0.80;;;12.30;99.90;;;;;;5091710;28;20268;-59
2022/02/17 00:05:24;;;;;;;2.37;0.60;;;12.30;99.90;;;;;;5091704;28;20230;-58
2022/02/17 00:07:54;;;;;;;0.57;0.50;;;12.30;99.90;;;;;;5091596;28;20249;-59
2022/02/17 00:10:23;;;;;;;1.67;1.03;;;12.30;99.90;;;;;;5091698;28;20787;-59
2022/02/17 00:12:50;;;;;;;1.47;0.87;;;12.30;99.90;;;;;;5091716;28;20206;-58
2022/02/17 00:15:17;;;;;;;1.63;0.70;;;12.30;99.90;;;;;;5091761;28;20267;-55
2022/02/17 00:17:43;;;;;;;2.50;0.57;;;12.30;99.90;;;;;;5091470;28;20209;-57
2022/02/17 00:20:11;;;;;;;1.87;0.80;;;12.30;99.90;;;;;;5091508;28;20215;-58
2022/02/17 00:22:38;;;;;;;1.30;0.60;;;12.20;99.90;;;;;;5091773;28;20201;-56
2022/02/17 00:25:08;;;;;;;4.97;1.00;;;12.00;99.90;;;;;;5091531;28;20220;-55
2022/02/17 00:27:35;;;;;;;2.00;0.60;;;11.90;99.90;;;;;;5094289;28;20635;-56
2022/02/17 00:30:02;;;;;;;5.37;1.10;;;11.70;99.90;;;;;;5095308;28;20605;-58
2022/02/17 00:32:29;;;;;;;3.53;0.90;;;11.70;99.90;;;;;;5095560;28;20234;-58
2022/02/17 00:34:56;;;;;;;5.50;1.10;;;11.70;99.90;;;;;;5095142;28;20714;-58
2022/02/17 00:37:22;;;;;;;2.20;0.87;;;11.80;99.90;;;;;;5095185;28;20212;-57
2022/02/17 00:39:49;;;;;;;3.07;0.83;;;11.70;99.90;;;;;;5095292;28;20212;-54
2022/02/17 00:42:18;;;;;;;2.43;0.90;;;11.70;99.90;;;;;;5095205;28;20295;-58
2022/02/17 00:44:47;;;;;;;3.73;0.90;;;11.60;99.90;;;;;;5095049;28;20255;-58
2022/02/17 00:47:14;;;;;;;2.57;0.60;;;11.50;99.90;;;;;;5094795;28;20231;-58
2022/02/17 00:49:41;;;;;;;1.20;0.80;;;11.50;99.90;;;;;;5095173;28;20224;-58
2022/02/17 00:52:08;;;;;;;2.43;0.80;;;11.40;99.90;;;;;;5095176;28;20230;-58
2022/02/17 00:54:35;;;;;;;1.13;0.50;;;11.40;99.90;;;;;;5094865;28;20281;-57
2022/02/17 00:57:02;;;;;;;1.70;0.70;;;11.30;99.90;;;;;;5094967;28;20215;-58
2022/02/17 00:59:30;;;;;;;2.20;0.80;;;11.30;99.90;;;;;;5094663;28;20619;-58
2022/02/17 01:01:57;;;;;;;2.30;0.80;;;11.30;99.90;;;;;;5094994;28;20200;-57
2022/02/17 01:04:24;;;;;;;3.97;1.17;;;11.20;99.90;;;;;;5094739;28;20318;-58
2022/02/17 01:06:51;;;;;;;2.73;0.80;;;11.20;99.90;;;;;;5095044;28;20204;-58
2022/02/17 01:09:18;;;;;;;2.00;0.60;;;11.20;99.90;;;;;;5095105;28;20208;-58
2022/02/17 01:11:45;;;;;;;2.23;0.90;;;11.20;99.90;;;;;;5094423;28;20220;-58
2022/02/17 01:14:12;;;;;;;1.47;0.80;;;11.20;99.90;;;;;;5094816;28;20229;-58
2022/02/17 01:16:40;;;;;;;3.67;0.80;;;11.10;99.90;;;;;;5094544;28;20261;-58
2022/02/17 01:19:07;;;;;;;2.67;0.80;;;11.20;99.90;;;;;;5094801;28;20670;-56
2022/02/17 01:21:33;;;;;;;1.20;0.70;;;11.20;99.90;;;;;;5094966;28;20579;-57
2022/02/17 01:24:00;;;;;;;2.20;1.27;;;11.20;99.90;;;;;;5094261;28;20233;-56
2022/02/17 01:26:27;;;;;;;4.97;1.70;;;11.20;99.90;;;;;;5093841;28;20205;-58
2022/02/17 01:28:54;;;;;;;2.80;1.40;;;11.20;99.90;;;;;;5094209;28;20669;-58
2022/02/17 01:31:20;;;;;;;2.93;1.90;;;11.20;99.90;;;;;;5094223;28;20699;-58
2022/02/17 01:33:48;;;;;;;2.83;1.33;;;11.10;99.90;;;;;;5094084;28;20254;-58
2022/02/17 01:36:15;;;;;;;3.07;1.60;;;11.10;99.90;;;;;;5094055;28;20209;-57
2022/02/17 01:38:44;;;;;;;2.77;1.30;;;11.10;99.90;;;;;;5094048;28;20212;-58
2022/02/17 01:41:12;;;;;;;3.57;1.43;;;11.00;99.90;;;;;;5093778;28;20654;-58
2022/02/17 01:43:39;;;;;;;5.23;1.30;;;11.00;99.90;;;;;;5094211;28;20232;-56
2022/02/17 01:46:06;;;;;;;5.90;1.10;;;11.00;99.90;;;;;;5093746;28;20216;-59
2022/02/17 01:48:33;;;;;;;5.37;1.60;;;11.00;99.90;;;;;;5094003;28;20664;-57
2022/02/17 01:51:01;;;;;;;8.80;1.77;;;11.00;99.90;;;;;;5093917;28;20212;-58
2022/02/17 01:53:30;;;;;;;5.90;1.87;;;11.00;99.90;;;;;;5093547;28;20232;-58
2022/02/17 01:55:58;;;;;;;4.70;1.93;;;11.00;99.90;;;;;;5093814;28;20200;-58
2022/02/17 01:58:24;;;;;;;9.07;2.07;;;10.90;99.90;;;;;;5093593;28;20287;-58
2022/02/17 02:00:51;;;;;;;10.03;2.10;;;10.90;99.90;;;;;;5093924;28;20212;-57
2022/02/17 02:03:18;;;;;;;4.93;1.10;;;10.90;99.90;;;;;;5093530;28;20272;-57
2022/02/17 02:05:45;;;;;;;7.83;1.90;;;11.00;99.90;;;;;;5093624;28;20208;-53
2022/02/17 02:08:13;;;;;;;8.83;2.07;;;11.00;99.90;;;;;;5093574;28;20233;-56
2022/02/17 02:10:39;;;;;;;5.00;1.63;;;11.00;99.90;;;;;;5093689;28;20208;-58
2022/02/17 02:13:07;;;;;;;5.80;1.67;;;10.90;99.90;;;;;;5093877;28;20619;-58
2022/02/17 02:15:45;;;;;;;6.10;1.30;;;10.90;99.90;;;;;;5093889;28;20214;-56
2022/02/17 02:18:11;;;;;;;7.37;1.80;;;10.90;99.90;;;;;;5093686;28;20200;-58
2022/02/17 02:20:44;;;;;;;5.37;1.60;;;10.80;99.90;;;;;;5093272;28;20295;-57
2022/02/17 02:23:10;;;;;;;8.27;1.97;;;10.90;99.90;;;;;;5093625;28;20250;-52
2022/02/17 02:25:37;;;;;;;7.77;1.77;;;10.90;99.90;;;;;;5093818;28;20250;-58
2022/02/17 02:28:04;;;;;;;6.07;1.73;;;10.90;99.90;;;;;;5093153;28;20295;-58
2022/02/17 02:30:31;;;;;;;8.70;1.73;;;10.80;99.90;;;;;;5093627;28;20227;-57
2022/02/17 02:32:57;;;;;;;9.70;1.43;;;10.80;99.90;;;;;;5093162;28;20224;-57
2022/02/17 02:35:24;;;;;;;8.53;2.03;;;10.80;99.90;;;;;;5093763;28;20273;-57
2022/02/17 02:37:52;;;;;;;3.73;1.60;;;10.80;99.90;;;;;;5093242;28;20205;-57
2022/02/17 02:40:19;;;;;;;6.87;2.03;;;10.70;99.90;;;;;;5093365;28;20266;-56
2022/02/17 02:42:46;;;;;;;8.60;2.23;;;10.70;99.90;;;;;;5093120;28;20204;-56
2022/02/17 02:45:12;;;;;;;6.37;1.83;;;10.60;99.90;;;;;;5092628;28;20315;-54
2022/02/17 02:47:39;;;;;;;9.73;2.03;;;10.60;99.90;;;;;;5092629;28;20208;-57
2022/02/17 02:50:06;;;;;;;5.67;1.80;;;10.60;99.90;;;;;;5092082;28;20671;-58
2022/02/17 02:52:33;;;;;;;3.30;1.60;;;10.60;99.90;;;;;;5092919;28;20761;-57
2022/02/17 02:55:01;;;;;;;6.57;2.17;;;10.70;99.90;;;;;;5092973;28;20281;-57
2022/02/17 02:57:27;;;;;;;9.33;2.30;;;10.70;99.90;;;;;;5092448;28;20273;-58
2022/02/17 02:59:54;;;;;;;4.90;2.00;;;10.60;99.90;;;;;;5092808;28;20607;-55
2022/02/17 03:02:21;;;;;;;12.93;2.40;;;10.70;99.90;;;;;;5092308;28;20252;-54
2022/02/17 03:04:48;;;;;;;4.20;1.70;;;10.70;75.80;;;;;;5092387;28;20860;-56
2022/02/17 03:07:14;;;;;;;10.40;2.27;;;10.70;19.00;;;;;;5092589;28;20261;-57
2022/02/17 03:09:41;;;;;;;10.52;2.35;;;10.60;1.00;;;;;;5091121;28;20445;-57
2022/02/17 03:12:09;;;;;;;10.40;2.10;;;10.60;1.00;;;;;;5092477;28;20828;-58
2022/02/17 03:14:36;;;;;;;5.17;1.60;;;10.50;1.00;;;;;;5092121;28;20598;-58
2022/02/17 03:17:03;;;;;;;6.17;1.80;;;10.60;1.00;;;;;;5092136;28;20211;-57
2022/02/17 03:19:30;;;;;;;9.23;1.87;;;10.50;1.00;;;;;;5092366;28;20204;-58
2022/02/17 03:21:57;;;;;;;8.27;2.40;;;10.50;1.10;;;;;;5092416;28;20204;-58
2022/02/17 03:24:24;;;;;;;7.87;1.63;;;10.40;1.00;;;;;;5092302;28;20648;-58
2022/02/17 03:26:51;;;;;;;5.40;1.83;;;10.40;1.00;;;;;;5091866;28;20239;-56
2022/02/17 03:29:19;;;;;;;5.57;2.00;;;10.30;1.00;;;;;;5092013;28;20208;-58
2022/02/17 03:31:46;;;;;;;10.40;2.23;;;10.30;1.00;;;;;;5092292;28;20231;-59
2022/02/17 03:34:13;;;;;;;10.03;2.50;;;10.30;1.00;;;;;;5092234;28;20224;-58
2022/02/17 03:36:40;;;;;;;10.90;2.60;;;10.20;1.00;;;;;;5092266;28;20233;-58
2022/02/17 03:39:06;;;;;;;8.17;1.80;;;10.20;1.00;;;;;;5092120;28;20227;-57
2022/02/17 03:41:33;;;;;;;13.33;2.30;;;10.20;1.00;;;;;;5092055;28;20208;-58
2022/02/17 03:44:00;;;;;;;8.50;2.07;;;10.30;1.00;;;;;;5091595;28;20250;-58
2022/02/17 03:46:28;;;;;;;10.63;2.30;;;10.30;1.00;;;;;;5091791;28;20208;-58
2022/02/17 03:48:54;;;;;;;7.87;1.77;;;10.30;1.00;;;;;;5091786;28;20269;-58
2022/02/17 03:51:21;;;;;;;11.70;2.37;;;10.30;1.00;;;;;;5091952;28;20634;-58
2022/02/17 03:53:48;;;;;;;13.07;2.50;;;10.30;99.90;;;;;;5091791;28;20694;-57
2022/02/17 03:56:14;;;;;;;6.47;1.87;;;10.30;1.00;;;;;;5091340;28;20204;-58
2022/02/17 04:01:25;;;;;;;13.77;2.83;;;10.30;99.90;;;;;;5092896;28;20218;-59
2022/02/17 04:03:53;;;;;;;9.97;2.43;;;10.30;99.90;;;;;;5095951;28;20633;-57
2022/02/17 04:06:20;;;;;;;7.60;2.00;;;10.30;99.90;;;;;;5095726;28;20253;-56
2022/02/17 04:08:47;;;;;;;7.00;1.77;;;10.20;99.90;;;;;;5095863;28;20215;-58
2022/02/17 04:11:13;;;;;;;8.60;1.53;;;10.20;99.90;;;;;;5096090;28;20622;-58
2022/02/17 04:13:40;;;;;;;11.47;2.23;;;10.20;99.90;;;;;;5095459;28;20232;-58
2022/02/17 04:16:07;;;;;;;10.03;2.60;;;10.20;99.90;;;;;;5095581;28;20674;-58
2022/02/17 04:18:34;;;;;;;9.17;2.20;;;10.10;30.30;;;;;;5095646;28;20212;-58
2022/02/17 04:21:02;;;;;;;9.03;2.07;;;10.10;99.90;;;;;;5095749;28;20291;-58
2022/02/17 04:23:29;;;;;;;14.63;2.43;;;10.00;99.90;;;;;;5095596;28;20242;-58
2022/02/17 04:25:55;;;;;;;8.70;2.10;;;9.90;67.80;;;;;;5095387;28;20238;-62
2022/02/17 04:28:22;;;;;;;10.10;2.03;;;9.90;99.90;;;;;;5095876;28;20207;-58
2022/02/17 04:30:49;;;;;;;9.60;2.03;;;9.90;1.00;;;;;;5095503;28;20210;-59
2022/02/17 04:33:15;;;;;;;10.03;1.83;;;9.90;1.00;;;;;;5095185;28;20709;-59
2022/02/17 04:35:42;;;;;;;11.60;2.60;;;9.90;99.90;;;;;;5095031;28;20203;-58
2022/02/17 04:38:10;;;;;;;10.23;2.77;;;9.80;99.90;;;;;;5095097;28;20205;-57
2022/02/17 04:43:21;;;;;;;13.47;2.30;;;9.90;99.90;;;;;;5095067;28;20219;-59
2022/02/17 04:45:47;;;;;;;13.70;2.37;;;9.90;99.90;;;;;;5095330;28;20218;-59
2022/02/17 04:48:14;;;;;;;15.23;3.07;;;9.80;1.00;;;;;;5095305;28;20208;-59
2022/02/17 04:50:41;;;;;;;8.57;2.43;;;9.70;75.20;;;;;;5094912;28;20209;-59
2022/02/17 04:53:07;;;;;;;11.50;2.57;;;9.70;1.00;;;;;;5095046;28;20232;-58
2022/02/17 04:55:35;;;;;;;13.20;2.67;;;9.70;99.90;;;;;;5095144;28;20272;-58
2022/02/17 04:58:02;;;;;;;13.17;2.77;;;9.80;99.90;;;;;;5094997;28;20265;-59
2022/02/17 05:00:29;;;;;;;9.30;2.40;;;9.70;1.00;;;;;;5094865;28;20204;-59
2022/02/17 05:02:55;;;;;;;12.63;3.13;;;9.70;1.00;;;;;;5094871;28;20197;-59
2022/02/17 05:05:22;;;;;;;12.43;2.20;;;9.80;99.90;;;;;;5095232;28;20257;-57
2022/02/17 05:07:49;;;;;;;8.57;2.40;;;9.80;99.90;;;;;;5094997;28;20215;-59
2022/02/17 05:10:16;;;;;;;11.03;2.30;;;9.80;68.20;;;;;;5094946;28;20257;-59
2022/02/17 05:12:44;;;;;;;12.77;2.50;;;9.80;1.00;;;;;;5094134;28;20277;-59
2022/02/17 05:15:10;;;;;;;11.13;2.80;;;9.80;1.00;;;;;;5094921;28;20274;-59
2022/02/17 05:17:37;;;;;;;8.90;2.30;;;9.80;1.00;;;;;;5094267;28;20205;-58
2022/02/17 05:20:05;;;;;;;10.40;2.00;;;9.80;1.00;;;;;;5094763;28;20204;-58
2022/02/17 05:22:32;;;;;;;10.43;2.50;;;9.80;1.00;;;;;;5094529;28;20293;-57
2022/02/17 05:24:59;;;;;;;16.70;3.03;;;9.80;99.90;;;;;;5094346;28;20277;-57
2022/02/17 05:27:26;;;;;;;9.90;2.20;;;9.80;99.90;;;;;;5091269;28;20211;-59
2022/02/17 05:29:54;;;;;;;15.40;3.23;;;9.80;99.90;;;;;;5074206;28;20204;-57
2022/02/17 05:32:20;;;;;;;6.50;1.67;;;9.80;99.90;;;;;;5073921;28;20288;-55
2022/02/17 05:34:47;;;;;;;11.60;2.20;;;9.80;1.00;;;;;;5073793;28;20228;-55
2022/02/17 05:37:14;;;;;;;13.23;2.83;;;9.90;1.00;;;;;;5074057;28;20208;-56
2022/02/17 05:39:40;;;;;;;9.07;2.07;;;9.90;1.00;;;;;;5074150;28;20209;-59
2022/02/17 05:42:07;;;;;;;9.53;2.37;;;9.80;1.00;;;;;;5073935;28;20208;-59
2022/02/17 05:44:35;;;;;;;6.83;1.93;;;9.80;99.90;;;;;;5074133;28;20238;-59
2022/02/17 05:47:03;;;;;;;17.83;3.40;;;9.70;99.90;;;;;;5073446;28;20204;-59
2022/02/17 05:49:30;;;;;;;15.40;3.30;;;9.70;99.90;;;;;;5073662;28;20215;-57
2022/02/17 05:51:57;;;;;;;15.53;2.83;;;9.80;99.90;;;;;;5073825;28;20259;-59
2022/02/17 05:54:23;;;;;;;12.10;3.07;;;9.80;99.90;;;;;;5079460;28;20228;-60
2022/02/17 05:56:50;;;;;;;17.83;3.90;;;9.80;99.90;;;;;;5093693;28;20674;-61
2022/02/17 05:59:17;;;;;;;14.60;2.87;;;9.80;99.90;;;;;;5093367;28;20204;-60
2022/02/17 06:01:44;;;;;;;19.30;3.30;;;9.70;99.90;;;;;;5093749;28;20216;-59
2022/02/17 06:04:12;;;;;;;9.93;1.87;;;9.70;99.90;;;;;;5093498;28;20223;-56
2022/02/17 06:06:38;;;;;;;11.40;2.30;;;9.70;99.90;;;;;;5093407;28;20679;-59
2022/02/17 06:09:05;;;;;;;13.10;2.40;;;9.60;99.90;;;;;;5093661;28;20215;-58
2022/02/17 06:11:32;;;;;;;11.13;2.90;;;9.60;99.90;;;;;;5093335;28;20208;-57
2022/02/17 06:13:58;;;;;;;20.93;2.90;;;9.60;99.90;;;;;;5093445;28;20841;-59
2022/02/17 06:16:25;;;;;;;11.43;2.70;;;9.60;99.90;;;;;;5093158;28;20682;-59
2022/02/17 06:18:52;;;;;;;10.87;2.47;;;9.60;99.90;;;;;;5093635;28;20556;-60
2022/02/17 06:21:20;;;;;;;15.33;2.60;;;9.60;99.90;;;;;;5093533;28;20249;-59
2022/02/17 06:23:46;;;;;;;10.80;2.67;;;9.60;27.10;;;;;;5092540;28;20273;-58
2022/02/17 06:26:13;;;;;;;22.90;3.23;;;9.60;11.80;;;;;;5092661;28;20204;-57
2022/02/17 06:28:40;;;;;;;13.47;2.90;;;9.70;1.00;;;;;;5092816;28;20235;-56
2022/02/17 06:31:06;;;;;;;20.10;2.93;;;9.60;1.00;;;;;;5088240;28;20627;-61
2022/02/17 06:33:33;;;;;;;11.90;2.83;;;9.60;1.00;;;;;;5086561;28;20235;-61
2022/02/17 06:36:00;;;;;;;10.17;2.33;;;9.60;1.00;;;;;;5092576;28;20234;-60
2022/02/17 06:38:29;;;;;;;15.93;3.30;;;9.60;1.00;;;;;;5092709;28;20211;-60
2022/02/17 06:40:56;;;;;;;15.83;3.63;;;9.60;1.00;;;;;;5091976;28;20218;-60
2022/02/17 06:43:23;;;;;;;13.53;3.70;;;9.60;1.00;;;;;;5092519;28;20234;-60
2022/02/17 06:45:50;;;;;;;11.53;3.10;;;9.60;1.00;;;;;;5092654;28;20204;-59
2022/02/17 06:48:17;;;;;;;10.97;2.37;;;9.60;99.90;;;;;;5092424;28;20211;-59
2022/02/17 06:50:44;;;;;;;16.20;3.83;;;9.60;99.90;;;;;;5092533;28;20681;-60
2022/02/17 06:53:11;;;;;;;13.83;2.93;;;9.60;99.90;;;;;;5091808;28;20226;-58
2022/02/17 06:55:39;;;;;;;16.37;2.83;;;9.60;99.90;;;;;;5092195;28;20208;-59
2022/02/17 06:58:06;;;;;;;21.97;3.87;;;9.50;99.90;;;;;;5092136;28;20566;-58
2022/02/17 07:00:33;;;;;;;15.40;2.63;;;9.50;99.90;;;;;;5092417;28;20624;-60
2022/02/17 07:03:00;;;;;;;21.50;3.60;;;9.40;99.90;;;;;;5092047;28;20252;-56
2022/02/17 07:05:27;;;;;;;13.87;2.90;;;9.40;12.30;;;;;;5091929;28;20555;-58
2022/02/17 07:07:54;;;;;;;12.67;2.20;;;9.40;99.90;;;;;;5091986;28;20211;-58
2022/02/17 07:13:03;;;;;;;3.80;1.43;;;8.30;10.50;;;;;;5091413;28;20218;-57
2022/02/17 07:15:34;;;;;;;15.30;2.00;;;7.60;1.00;;;;;;5092052;28;20208;-59
2022/02/17 07:18:01;;;;;;;9.60;1.60;;;7.40;99.90;;;;;;5091766;28;20211;-58
2022/02/17 07:20:30;;;;;;;13.47;2.87;;;7.30;99.90;;;;;;5092689;28;20204;-58
2022/02/17 07:22:57;;;;;;;13.17;1.97;;;7.30;1.00;;;;;;5092142;28;20296;-59
2022/02/17 07:25:24;;;;;;;8.00;1.87;;;7.40;1.00;;;;;;5092338;28;20245;-57
2022/02/17 07:27:51;;;;;;;10.73;2.00;;;7.30;99.90;;;;;;5091583;28;20204;-60
2022/02/17 07:30:19;;;;;;;7.53;2.20;;;7.30;1.00;;;;;;5091591;28;20216;-55
2022/02/17 07:32:45;;;;;;;9.77;1.80;;;7.30;99.90;;;;;;5091553;28;20626;-58
2022/02/17 07:35:12;;;;;;;5.93;1.67;;;7.30;27.90;;;;;;5090853;28;20738;-63
2022/02/17 07:37:40;;;;;;;10.03;2.17;;;7.30;1.00;;;;;;5091718;28;20204;-61
2022/02/17 07:40:11;;;;;;;5.73;1.63;;;7.20;1.00;;;;;;5091804;28;20208;-58
2022/02/17 07:42:38;;;;;;;5.67;1.50;;;7.20;1.00;;;;;;5091172;28;20253;-60
2022/02/17 07:45:06;;;;;;;10.27;1.93;;;7.30;1.00;;;;;;5091743;28;20224;-60
2022/02/17 07:47:34;;;;;;;10.83;2.53;;;7.30;99.90;;;;;;5091045;28;20204;-61
2022/02/17 07:50:01;;;;;;;13.97;2.63;;;7.60;99.90;;;;;;5091460;28;20542;-61
2022/02/17 07:52:28;;;;;;;18.93;2.77;;;7.90;1.00;;;;;;5091306;28;20211;-60
2022/02/17 07:54:54;;;;;;;11.17;2.10;;;8.10;1.00;;;;;;5090946;28;20225;-61
2022/02/17 07:57:21;;;;;;;13.00;2.03;;;8.40;99.90;;;;;;5091607;28;20236;-62
2022/02/17 07:59:48;;;;;;;10.30;2.10;;;8.50;99.90;;;;;;5091325;28;20253;-62
2022/02/17 08:02:14;;;;;;;9.70;2.60;;;8.60;99.90;;;;;;5090955;28;20208;-62
2022/02/17 08:04:43;;;;;;;10.77;2.50;;;8.70;99.90;;;;;;5091681;28;20313;-60
2022/02/17 08:07:10;;;;;;;8.67;1.97;;;8.80;69.70;;;;;;5091193;28;20641;-62
2022/02/17 08:09:37;;;;;;;5.67;1.33;;;8.90;3.80;;;;;;5091763;28;20210;-64
2022/02/17 08:12:04;;;;;;;6.53;1.63;;;9.00;1.00;;;;;;5091283;28;20211;-65
2022/02/17 08:14:31;;;;;;;5.80;1.83;;;9.00;1.00;;;;;;5091178;28;20243;-63
2022/02/17 08:16:58;;;;;;;5.93;1.90;;;9.00;1.00;;;;;;5091040;28;20850;-64
2022/02/17 08:19:24;;;;;;;9.37;1.90;;;9.00;1.00;;;;;;5091245;28;20580;-65
2022/02/17 08:21:52;;;;;;;9.57;1.80;;;9.00;1.00;;;;;;5091269;28;20214;-63
2022/02/17 08:24:19;;;;;;;4.57;1.40;;;9.00;1.00;;;;;;5091146;28;20231;-60
2022/02/17 08:26:46;;;;;;;4.20;1.60;;;8.90;1.00;;;;;;5091085;28;20212;-61
2022/02/17 08:29:12;;;;;;;7.80;2.27;;;8.40;99.90;;;;;;5091143;28;20209;-62
2022/02/17 08:31:39;;;;;;;4.27;1.17;;;7.90;99.90;;;;;;5090913;28;20216;-58
2022/02/17 08:34:07;;;;;;;9.17;1.67;;;7.50;1.00;;;;;;5090959;28;20236;-60
2022/02/17 08:36:34;;;;;;;6.60;1.73;;;7.20;99.90;;;;;;5091423;28;20619;-61
2022/02/17 08:39:03;;;;;;;4.40;1.47;;;6.90;99.90;;;;;;5091300;28;20208;-59
2022/02/17 08:41:30;;;;;;;7.53;2.00;;;6.60;99.90;;;;;;5090763;28;20231;-61
2022/02/17 08:43:57;;;;;;;7.20;1.77;;;6.40;99.90;;;;;;5090539;28;20224;-61
2022/02/17 08:46:23;;;;;;;6.93;1.70;;;6.30;99.90;;;;;;5091547;28;20208;-61
2022/02/17 08:48:50;;;;;;;7.70;1.83;;;6.30;1.00;;;;;;5093812;28;20212;-60
2022/02/17 08:51:18;;;;;;;7.87;1.83;;;6.40;1.00;;;;;;5094455;28;20701;-60
2022/02/17 08:53:45;;;;;;;10.33;2.40;;;6.50;1.00;;;;;;5094657;28;20224;-60
2022/02/17 08:56:13;;;;;;;7.83;1.93;;;6.60;1.00;;;;;;5094052;28;20890;-60
2022/02/17 08:58:40;;;;;;;7.77;2.30;;;6.60;99.90;;;;;;5094734;28;20567;-62
2022/02/17 09:01:07;;;;;;;15.23;2.53;;;6.80;99.90;;;;;;5094414;28;20208;-61
2022/02/17 09:03:34;;;;;;;6.73;1.97;;;7.00;1.00;;;;;;5094676;28;20221;-60
2022/02/17 09:06:00;;;;;;;9.17;1.50;;;7.50;55.90;;;;;;5094956;28;20201;-60
2022/02/17 09:08:27;;;;;;;11.57;1.93;;;7.80;99.90;;;;;;5094790;28;20273;-61
2022/02/17 09:10:56;;;;;;;9.40;1.70;;;8.00;99.90;;;;;;5094398;28;20689;-62
2022/02/17 09:13:24;;;;;;;5.30;1.70;;;8.00;1.00;;;;;;5094546;28;20334;-62
2022/02/17 09:15:52;;;;;;;8.30;2.00;;;8.10;1.00;;;;;;5095117;28;20208;-62
2022/02/17 09:18:19;;;;;;;4.10;1.43;;;8.10;1.00;;;;;;5094793;28;20212;-60
2022/02/17 09:20:46;;;;;;;5.40;1.40;;;8.30;1.00;;;;;;5094640;28;20206;-63
2022/02/17 09:23:12;;;;;;;9.03;1.57;;;8.20;1.00;;;;;;5095159;28;20226;-62
2022/02/17 09:25:39;;;;;;;6.17;1.47;;;8.20;1.00;;;;;;5096574;28;20204;-61
2022/02/17 09:28:08;;;;;;;7.73;1.70;;;8.10;1.00;;;;;;5098829;28;20211;-61
2022/02/17 09:30:37;;;;;;;6.73;1.70;;;8.10;1.00;;;;;;5096030;28;20690;-61
2022/02/17 09:33:04;;;;;;;10.07;2.17;;;8.00;1.00;;;;;;5093682;28;20211;-61
2022/02/17 09:35:31;;;;;;;9.73;1.57;;;8.00;1.00;;;;;;5093860;28;20226;-62
2022/02/17 09:37:57;;;;;;;7.87;1.87;;;8.00;1.00;;;;;;5093610;28;20208;-61
2022/02/17 09:40:24;;;;;;;7.07;2.07;;;8.00;1.00;;;;;;5094018;28;20272;-60
2022/02/17 09:42:51;;;;;;;7.17;1.83;;;8.30;1.00;;;;;;5093720;28;20743;-60
2022/02/17 09:45:20;;;;;;;9.17;1.93;;;8.40;1.00;;;;;;5094056;28;20195;-63
2022/02/17 09:47:48;;;;;;;8.70;2.10;;;8.60;1.00;;;;;;5093677;28;20255;-62
2022/02/17 09:50:16;;;;;;;4.87;1.93;;;8.70;1.00;;;;;;5093586;28;20272;-62
2022/02/17 09:52:45;;;;;;;5.80;1.83;;;8.80;1.00;;;;;;5093722;28;20207;-61
2022/02/17 09:55:13;;;;;;;13.27;3.07;;;9.10;1.00;;;;;;5093502;28;20235;-58
2022/02/17 09:57:40;;;;;;;11.70;2.07;;;9.20;1.00;;;;;;5093536;28;20203;-59
2022/02/17 10:00:09;;;;;;;9.27;1.87;;;9.20;1.00;;;;;;5093734;28;20211;-61
2022/02/17 10:02:36;;;;;;;10.30;1.93;;;9.20;1.00;;;;;;5093829;28;20215;-62
2022/02/17 10:05:06;;;;;;;8.97;1.87;;;9.10;1.00;;;;;;5093589;28;20281;-64
2022/02/17 10:07:34;;;;;;;6.60;1.93;;;8.90;1.00;;;;;;5093203;28;20207;-63
2022/02/17 10:10:04;;;;;;;8.17;2.00;;;8.90;1.00;;;;;;5093208;28;20261;-63
2022/02/17 10:12:51;;;;;;;7.53;1.80;;;9.00;1.00;;;;;;5093017;28;20206;-64
2022/02/17 10:15:29;;;;;;;8.77;1.93;;;9.10;1.00;;;;;;5093158;28;20274;-61
2022/02/17 10:18:04;;;;;;;4.90;1.47;;;9.10;1.00;;;;;;5093426;28;20206;-64
2022/02/17 10:20:52;;;;;;;12.97;1.97;;;9.10;1.00;;;;;;5093034;28;20256;-63
2022/02/17 10:23:18;;;;;;;7.47;1.40;;;9.00;1.00;;;;;;5092869;28;20281;-62
2022/02/17 10:26:01;;;;;;;8.50;2.10;;;9.00;1.00;;;;;;5092873;28;20205;-61
2022/02/17 10:28:29;;;;;;;6.70;1.30;;;9.00;1.00;;;;;;5092921;28;20263;-62
2022/02/17 10:30:57;;;;;;;4.43;1.33;;;8.80;1.00;;;;;;5093063;28;20209;-59
2022/02/17 10:33:24;;;;;;;8.53;1.97;;;8.80;1.00;;;;;;5092512;28;20225;-62
2022/02/17 10:35:58;;;;;;;11.30;1.70;;;8.70;1.00;;;;;;5092592;28;20716;-62
2022/02/17 10:38:25;;;;;;;6.37;1.23;;;8.70;1.00;;;;;;5092712;28;20210;-61
2022/02/17 10:40:54;;;;;;;6.57;1.53;;;8.80;99.90;;;;;;5092710;28;20215;-60
2022/02/17 10:43:22;;;;;;;12.77;1.63;;;8.70;99.90;;;;;;5092820;28;20248;-61
2022/02/17 10:45:51;;;;;;;8.17;1.50;;;8.60;99.90;;;;;;5092383;28;20292;-61
2022/02/17 10:48:20;;;;;;;3.57;1.40;;;8.80;99.90;;;;;;5092546;28;20223;-61
2022/02/17 10:50:49;;;;;;;3.50;1.50;;;8.90;99.90;;;;;;5092529;28;20215;-60
2022/02/17 10:53:21;;;;;;;10.20;2.07;;;9.10;99.90;;;;;;5091698;28;20231;-62
2022/02/17 10:55:53;;;;;;;3.57;1.03;;;9.40;99.90;;;;;;5092247;28;20334;-62
2022/02/17 10:58:22;;;;;;;8.37;1.97;;;9.70;99.90;;;;;;5092214;28;20212;-67
2022/02/17 11:00:50;;;;;;;5.43;1.53;;;10.00;1.00;;;;;;5092315;28;20211;-66
2022/02/17 11:03:17;;;;;;;3.87;1.47;;;10.10;99.90;;;;;;5091943;28;20646;-68
2022/02/17 11:05:45;;;;;;;5.40;1.20;;;10.10;99.90;;;;;;5092128;28;20200;-65
2022/02/17 11:08:14;;;;;;;4.73;1.27;;;10.20;99.90;;;;;;5092335;28;20204;-67
2022/02/17 11:10:43;;;;;;;7.20;1.60;;;10.30;99.90;;;;;;5091438;28;20205;-65
2022/02/17 11:13:12;;;;;;;6.10;1.53;;;10.50;99.90;;;;;;5091915;28;20213;-65
2022/02/17 11:15:40;;;;;;;4.40;1.23;;;10.70;99.90;;;;;;5092127;28;20596;-64
2022/02/17 11:18:07;;;;;;;7.20;1.13;;;10.60;99.90;;;;;;5091566;28;20212;-65
2022/02/17 11:20:37;;;;;;;3.57;1.40;;;10.20;99.90;;;;;;5092183;28;20262;-66
2022/02/17 11:23:04;;;;;;;6.17;1.50;;;10.00;99.90;;;;;;5091500;28;20303;-64
2022/02/17 11:25:35;;;;;;;7.53;1.47;;;9.90;99.90;;;;;;5092032;28;20283;-64
2022/02/17 11:28:05;;;;;;;5.33;1.80;;;9.80;99.90;;;;;;5091526;28;20207;-65
2022/02/17 11:30:33;;;;;;;5.40;1.30;;;9.50;99.90;;;;;;5091841;28;20210;-66
2022/02/17 11:33:24;;;;;;;12.03;1.23;;;9.40;99.90;;;;;;5091741;28;20208;-66
2022/02/17 11:35:53;;;;;;;3.10;1.10;;;9.30;99.90;;;;;;5091486;28;20231;-66
2022/02/17 11:38:34;;;;;;;7.20;1.20;;;9.30;99.90;;;;;;5091672;28;20211;-66
2022/02/17 11:41:07;;;;;;;5.20;1.47;;;9.40;99.90;;;;;;5091042;28;20689;-65
2022/02/17 11:43:37;;;;;;;3.53;1.10;;;9.30;99.90;;;;;;5091708;28;20246;-65
2022/02/17 11:46:04;;;;;;;5.63;1.33;;;9.50;99.90;;;;;;5091608;28;20619;-65
2022/02/17 11:48:36;;;;;;;2.77;0.97;;;9.50;99.90;;;;;;5091498;28;20226;-65
2022/02/17 11:51:15;;;;;;;5.97;1.77;;;9.50;99.90;;;;;;5091606;28;20263;-66
2022/02/17 11:53:44;;;;;;;6.43;1.53;;;9.50;99.90;;;;;;5091015;28;20318;-65
2022/02/17 11:56:36;;;;;;;4.90;1.37;;;9.30;99.90;;;;;;5091564;28;20250;-65
2022/02/17 11:59:19;;;;;;;7.83;1.70;;;9.20;99.90;;;;;;5091230;28;20739;-67
2022/02/17 12:01:46;;;;;;;6.20;1.50;;;9.00;99.90;;;;;;5091239;28;20211;-66
2022/02/17 12:04:18;;;;;;;6.87;1.30;;;9.00;99.90;;;;;;5091575;28;20234;-68
2022/02/17 12:06:47;;;;;;;7.63;1.37;;;9.00;99.90;;;;;;5091591;28;20188;-66
2022/02/17 12:09:35;;;;;;;4.20;1.67;;;9.00;99.90;;;;;;5091443;28;20211;-61
2022/02/17 12:12:37;;;;;;;6.77;1.47;;;8.80;99.90;;;;;;5090606;28;20214;-62
2022/02/17 12:15:13;;;;;;;8.03;1.67;;;8.70;99.90;;;;;;5088926;28;20287;-61
2022/02/17 12:17:42;;;;;;;7.00;1.40;;;8.70;99.90;;;;;;5091193;28;20254;-61
2022/02/17 12:20:13;;;;;;;3.67;1.07;;;8.60;99.90;;;;;;5091299;28;20211;-57
2022/02/17 12:22:52;;;;;;;4.73;1.50;;;8.70;99.90;;;;;;5092288;28;20206;-60
2022/02/17 12:25:24;;;;;;;5.23;1.60;;;8.60;99.90;;;;;;5095108;28;20838;-61
2022/02/17 12:27:53;;;;;;;8.70;2.10;;;8.70;99.90;;;;;;5095313;28;20823;-61
2022/02/17 12:30:34;;;;;;;3.93;1.50;;;8.80;99.90;;;;;;5094959;28;20206;-62
2022/02/17 12:33:09;;;;;;;4.80;1.30;;;9.00;99.90;;;;;;5094919;28;20259;-60
2022/02/17 12:35:37;;;;;;;1.70;0.80;;;9.20;99.90;;;;;;5095199;28;20608;-60
2022/02/17 12:38:06;;;;;;;6.60;1.30;;;9.40;99.90;;;;;;5095301;28;20207;-59
2022/02/17 12:40:34;;;;;;;4.77;1.53;;;9.60;99.90;;;;;;5095851;28;20207;-59
2022/02/17 12:43:01;;;;;;;5.10;1.17;;;9.70;99.90;;;;;;5095263;28;20252;-61
2022/02/17 12:45:39;;;;;;;10.40;1.60;;;9.80;99.90;;;;;;5098328;28;20712;-62
2022/02/17 12:48:06;;;;;;;4.77;1.30;;;9.80;99.90;;;;;;5099017;28;20684;-62
2022/02/17 12:50:35;;;;;;;8.57;1.27;;;9.90;99.90;;;;;;5095319;28;20203;-62
2022/02/17 12:53:03;;;;;;;6.27;1.43;;;9.80;99.90;;;;;;5094914;28;20208;-62
2022/02/17 12:55:47;;;;;;;5.00;1.23;;;9.60;99.90;;;;;;5095715;28;20224;-62
2022/02/17 12:58:25;;;;;;;4.43;1.00;;;9.70;99.90;;;;;;5095371;28;20204;-60
2022/02/17 13:00:54;;;;;;;5.00;1.37;;;9.60;99.90;;;;;;5094584;28;20239;-62
2022/02/17 13:03:37;;;;;;;7.47;1.20;;;9.70;99.90;;;;;;5094434;28;20281;-61
2022/02/17 13:06:18;;;;;;;3.17;1.03;;;9.60;99.90;;;;;;5094426;28;20229;-60